Leonardtown, Maryland
Current Conditions -  °F | °C
As of 12:03 AM on Tuesday 23 Dec 2014 (Local Time) from K2W6 Reporting Station
Overcast Overcast  
Wind Chill: 39°   Ceiling: 300
Heat Index: 39°   Visibility: 1.5mi
Dew Point: 37°   Wind: 0mph
Humidity: 93%   Direction: NA
Pressure: 30.05"   Gusts: NA
Location:  38.29°N, 76.64°W
Report Text: K2W6 230503Z AUTO 00000KT 1 1/2SM OVC003 04/03 A3005 RMK AO1
Loading
Personal Weather Stations






























Interactive Weather Map New forecast layout! Learn more

10-Day Weather Forecast

Advertisements
Track Severe Weather on mobile